Time;durP1;ratioP1;P1;durP2;ratioP2;P2;SDS_P1;SDS_P2;PMS_P1;PMS_P2;Temp;Humidity;BMP_temperature;BMP_pressure;BME280_temperature;BME280_humidity;BME280_pressure;Samples;Min_cycle;Max_cycle;Signal;HPM_P1;HPM_P2
2022/01/10 00:00:37;;;;;;;6.13;1.60;;;0.90;99.90;;;;;;4988594;28;20768;-65
2022/01/10 00:03:04;;;;;;;8.47;2.90;;;0.80;99.90;;;;;;4994995;28;20500;-66
2022/01/10 00:05:30;;;;;;;5.80;2.30;;;0.80;99.90;;;;;;4987716;28;20561;-65
2022/01/10 00:07:56;;;;;;;6.37;2.80;;;0.90;99.90;;;;;;4994746;28;20434;-65
2022/01/10 00:10:22;;;;;;;5.23;2.80;;;0.80;99.90;;;;;;4994330;28;20429;-65
2022/01/10 00:12:48;;;;;;;4.30;2.50;;;0.80;99.90;;;;;;4991275;28;20188;-65
2022/01/10 00:15:16;;;;;;;8.33;3.40;;;0.80;99.90;;;;;;4993319;28;20429;-65
2022/01/10 00:17:43;;;;;;;4.60;2.30;;;0.80;99.90;;;;;;4990955;28;20442;-65
2022/01/10 00:20:11;;;;;;;11.67;3.37;;;0.80;99.90;;;;;;4992246;28;20525;-65
2022/01/10 00:22:37;;;;;;;11.47;3.50;;;0.80;99.90;;;;;;4992549;28;20434;-65
2022/01/10 00:25:04;;;;;;;6.23;3.37;;;0.80;99.90;;;;;;4993526;28;20429;-65
2022/01/10 00:27:30;;;;;;;9.13;3.20;;;0.80;99.90;;;;;;4991366;28;20187;-65
2022/01/10 00:29:55;;;;;;;5.13;2.37;;;0.80;99.90;;;;;;4988089;28;20463;-65
2022/01/10 00:32:23;;;;;;;6.37;3.03;;;0.80;99.90;;;;;;4988608;28;20526;-65
2022/01/10 00:34:49;;;;;;;7.13;3.47;;;0.70;99.90;;;;;;4983652;28;20203;-65
2022/01/10 00:37:15;;;;;;;4.37;2.57;;;0.70;99.90;;;;;;4988488;28;20442;-65
2022/01/10 00:39:41;;;;;;;3.83;2.20;;;0.70;99.90;;;;;;4988270;28;20520;-65
2022/01/10 00:42:06;;;;;;;8.23;3.30;;;0.70;99.90;;;;;;4988553;28;20215;-65
2022/01/10 00:44:39;;;;;;;13.80;3.53;;;0.70;99.90;;;;;;4988816;28;20195;-66
2022/01/10 00:47:05;;;;;;;6.07;3.77;;;0.70;99.90;;;;;;4991762;28;20180;-65
2022/01/10 00:49:31;;;;;;;10.03;3.37;;;0.70;99.90;;;;;;4996293;28;20449;-65
2022/01/10 00:51:57;;;;;;;6.13;3.17;;;0.70;99.90;;;;;;4991815;28;20188;-65
2022/01/10 00:54:23;;;;;;;6.37;2.67;;;0.70;99.90;;;;;;4998042;28;20542;-65
2022/01/10 00:56:48;;;;;;;5.37;3.00;;;0.70;99.90;;;;;;4992690;28;20215;-65
2022/01/10 00:59:14;;;;;;;11.33;3.60;;;0.60;99.90;;;;;;4996688;28;20278;-65
2022/01/10 01:01:41;;;;;;;12.03;4.90;;;0.60;99.90;;;;;;4993918;28;20203;-66
2022/01/10 01:04:07;;;;;;;12.17;3.80;;;0.70;99.90;;;;;;4997395;28;20183;-65
2022/01/10 01:06:33;;;;;;;8.93;3.70;;;0.70;99.90;;;;;;4991167;28;20438;-65
2022/01/10 01:09:04;;;;;;;6.00;3.90;;;0.70;99.90;;;;;;4994904;28;20758;-65
2022/01/10 01:13:59;;;;;;;5.13;3.17;;;0.70;99.90;;;;;;4995891;28;20426;-65
2022/01/10 01:16:42;;;;;;;9.70;3.20;;;0.70;99.90;;;;;;4991686;28;20579;-65
2022/01/10 01:24:31;;;;;;;8.10;2.97;;;0.70;99.90;;;;;;4988798;28;20800;-65
2022/01/10 01:26:57;;;;;;;7.23;3.50;;;0.70;99.90;;;;;;4998336;28;20537;-65
2022/01/10 01:29:25;;;;;;;10.97;3.20;;;0.70;99.90;;;;;;4992807;28;20621;-65
2022/01/10 01:31:52;;;;;;;10.97;4.13;;;0.70;99.90;;;;;;4997912;28;20522;-65
2022/01/10 01:34:19;;;;;;;8.37;2.77;;;0.70;99.90;;;;;;4995931;28;20453;-65
2022/01/10 01:36:49;;;;;;;5.40;2.37;;;0.70;99.90;;;;;;4993178;28;20427;-65
2022/01/10 01:39:21;;;;;;;10.00;3.60;;;0.70;99.90;;;;;;4996501;28;20484;-65
2022/01/10 01:41:54;;;;;;;5.73;3.10;;;0.70;99.90;;;;;;4994439;28;20429;-65
2022/01/10 01:44:20;;;;;;;8.90;3.40;;;0.80;99.90;;;;;;4999886;28;20406;-65
2022/01/10 01:46:46;;;;;;;12.60;4.03;;;0.70;99.90;;;;;;4993784;28;20469;-65
2022/01/10 01:49:13;;;;;;;5.50;3.10;;;0.70;99.90;;;;;;4998488;28;20528;-65
2022/01/10 01:51:40;;;;;;;7.70;3.93;;;0.70;99.90;;;;;;4995198;28;20435;-65
2022/01/10 01:54:08;;;;;;;6.13;4.00;;;0.70;99.90;;;;;;5001480;28;20502;-65
2022/01/10 01:56:34;;;;;;;9.10;4.20;;;0.70;99.90;;;;;;4984377;28;20813;-65
2022/01/10 01:59:00;;;;;;;7.37;3.77;;;0.70;99.90;;;;;;4992174;28;20454;-65
2022/01/10 02:01:28;;;;;;;7.40;3.73;;;0.70;99.90;;;;;;4990974;28;21073;-65
2022/01/10 02:03:53;;;;;;;5.90;3.43;;;0.70;99.90;;;;;;4994907;28;20434;-65
2022/01/10 02:06:19;;;;;;;8.83;4.20;;;0.70;99.90;;;;;;4993735;28;20411;-65
2022/01/10 02:08:45;;;;;;;10.27;4.27;;;0.70;99.90;;;;;;4990246;28;20211;-65
2022/01/10 02:11:12;;;;;;;8.60;4.50;;;0.70;99.90;;;;;;4992433;28;20195;-65
2022/01/10 02:13:39;;;;;;;8.67;4.30;;;0.70;99.90;;;;;;4993983;28;20427;-65
2022/01/10 02:16:07;;;;;;;9.50;4.67;;;0.70;99.90;;;;;;4990787;28;20957;-65
2022/01/10 02:18:34;;;;;;;10.10;4.53;;;0.70;99.90;;;;;;4998558;28;20591;-65
2022/01/10 02:21:03;;;;;;;14.67;4.83;;;0.70;99.90;;;;;;4994032;28;20445;-65
2022/01/10 02:23:30;;;;;;;7.23;4.43;;;0.70;99.90;;;;;;4999493;28;20414;-65
2022/01/10 02:25:56;;;;;;;9.70;5.53;;;0.70;99.90;;;;;;4997326;28;20415;-65
2022/01/10 02:28:22;;;;;;;11.50;4.83;;;0.70;99.90;;;;;;4989153;28;20509;-65
2022/01/10 02:30:55;;;;;;;12.00;5.07;;;0.70;99.90;;;;;;4995146;28;20841;-65
2022/01/10 02:33:21;;;;;;;8.97;4.20;;;0.70;99.90;;;;;;4996572;28;20184;-65
2022/01/10 02:35:59;;;;;;;10.40;5.10;;;0.70;99.90;;;;;;4990713;28;20454;-65
2022/01/10 02:38:24;;;;;;;10.53;5.40;;;0.70;99.90;;;;;;4990889;28;20921;-65
2022/01/10 02:40:51;;;;;;;9.83;5.20;;;0.70;99.90;;;;;;4994029;28;20528;-65
2022/01/10 02:43:18;;;;;;;10.80;5.40;;;0.70;99.90;;;;;;4994724;28;20180;-65
2022/01/10 02:45:44;;;;;;;9.07;5.60;;;0.70;99.90;;;;;;4990346;28;20423;-65
2022/01/10 02:48:10;;;;;;;18.63;5.50;;;0.70;99.90;;;;;;4991071;28;20511;-65
2022/01/10 02:50:36;;;;;;;10.27;4.97;;;0.70;99.90;;;;;;4991134;28;20514;-65
2022/01/10 02:53:02;;;;;;;11.07;5.03;;;0.60;99.90;;;;;;4992944;28;20266;-65
2022/01/10 02:55:28;;;;;;;9.37;5.40;;;0.60;99.90;;;;;;4989891;28;20233;-65
2022/01/10 02:57:53;;;;;;;31.43;7.10;;;0.60;99.90;;;;;;4994484;28;21101;-65
2022/01/10 03:00:22;;;;;;;10.50;5.33;;;0.60;99.90;;;;;;4991876;28;20188;-65
2022/01/10 03:02:50;;;;;;;14.47;6.03;;;0.70;99.90;;;;;;4988775;28;20184;-65
2022/01/10 03:05:16;;;;;;;11.03;5.10;;;0.70;99.90;;;;;;4992140;28;20950;-65
2022/01/10 03:07:42;;;;;;;9.30;5.00;;;0.70;99.90;;;;;;4989345;28;20446;-65
2022/01/10 03:10:09;;;;;;;8.33;3.70;;;0.70;99.90;;;;;;4990017;28;20477;-65
2022/01/10 03:12:35;;;;;;;6.40;3.43;;;0.70;99.90;;;;;;4989741;28;20423;-65
2022/01/10 03:15:03;;;;;;;7.77;4.60;;;0.70;99.90;;;;;;4991750;28;20430;-65
2022/01/10 03:17:29;;;;;;;9.17;4.97;;;0.70;99.90;;;;;;4990228;28;20435;-65
2022/01/10 03:19:55;;;;;;;9.63;4.43;;;0.70;99.90;;;;;;4985716;28;20922;-65
2022/01/10 03:22:21;;;;;;;6.97;4.20;;;0.70;99.90;;;;;;4998254;28;20602;-65
2022/01/10 03:24:46;;;;;;;8.53;4.87;;;0.70;99.90;;;;;;4999298;28;20183;-65
2022/01/10 03:27:12;;;;;;;17.47;4.67;;;0.70;99.90;;;;;;4991891;28;20743;-65
2022/01/10 03:29:38;;;;;;;11.60;4.57;;;0.70;99.90;;;;;;5000612;28;20199;-65
2022/01/10 03:32:05;;;;;;;7.77;3.80;;;0.70;99.90;;;;;;4981728;28;20191;-65
2022/01/10 03:34:32;;;;;;;11.73;4.97;;;0.70;99.90;;;;;;4988796;28;20274;-65
2022/01/10 03:36:58;;;;;;;6.57;4.20;;;0.70;99.90;;;;;;4987676;28;20570;-65
2022/01/10 03:39:23;;;;;;;12.20;4.33;;;0.70;99.90;;;;;;4991699;28;20466;-65
2022/01/10 03:41:49;;;;;;;19.70;4.87;;;0.70;99.90;;;;;;4989515;28;20695;-65
2022/01/10 03:44:15;;;;;;;11.80;4.17;;;0.70;99.90;;;;;;4991033;28;20664;-65
2022/01/10 03:46:41;;;;;;;5.63;3.53;;;0.70;99.90;;;;;;4988568;28;20719;-65
2022/01/10 03:49:07;;;;;;;8.20;3.97;;;0.60;99.90;;;;;;4990619;28;20789;-63
2022/01/10 03:51:33;;;;;;;9.17;4.50;;;0.60;99.90;;;;;;4989895;28;20214;-65
2022/01/10 03:53:59;;;;;;;8.30;4.00;;;0.60;99.90;;;;;;4992524;28;20463;-65
2022/01/10 03:56:27;;;;;;;8.53;3.90;;;0.60;99.90;;;;;;4992320;28;20437;-65
2022/01/10 03:58:54;;;;;;;6.33;3.83;;;0.60;99.90;;;;;;4990919;28;20938;-65
2022/01/10 04:01:19;;;;;;;8.57;3.63;;;0.60;99.90;;;;;;4993409;28;20441;-65
2022/01/10 04:03:45;;;;;;;9.40;4.50;;;0.60;99.90;;;;;;4989706;28;20434;-65
2022/01/10 04:06:11;;;;;;;26.23;9.00;;;0.60;99.90;;;;;;4997368;28;20211;-65
2022/01/10 04:08:37;;;;;;;17.97;7.00;;;0.60;99.90;;;;;;4990209;28;20188;-65
2022/01/10 04:11:04;;;;;;;6.33;3.87;;;0.60;99.90;;;;;;4995861;28;20433;-65
2022/01/10 04:13:30;;;;;;;9.97;4.47;;;0.60;99.90;;;;;;4997230;28;20183;-65
2022/01/10 04:15:56;;;;;;;8.57;4.10;;;0.60;99.90;;;;;;4992277;28;20441;-65
2022/01/10 04:18:21;;;;;;;9.60;4.03;;;0.50;99.90;;;;;;4993313;28;20237;-65
2022/01/10 04:20:47;;;;;;;10.07;3.87;;;0.60;99.90;;;;;;4988134;28;20446;-65
2022/01/10 04:23:14;;;;;;;7.10;4.43;;;0.60;99.90;;;;;;4989045;28;20191;-65
2022/01/10 04:25:41;;;;;;;7.90;4.00;;;0.50;99.90;;;;;;4988472;28;20415;-65
2022/01/10 04:28:07;;;;;;;7.87;4.33;;;0.60;99.90;;;;;;4989272;28;20453;-65
2022/01/10 04:30:32;;;;;;;11.67;4.50;;;0.60;99.90;;;;;;4989830;28;20431;-65
2022/01/10 04:33:00;;;;;;;10.70;4.30;;;0.60;99.90;;;;;;4991198;28;20192;-65
2022/01/10 04:35:27;;;;;;;11.80;4.53;;;0.60;99.90;;;;;;4990142;28;20500;-65
2022/01/10 04:37:53;;;;;;;13.33;3.47;;;0.60;99.90;;;;;;4992056;28;20477;-65
2022/01/10 04:40:19;;;;;;;17.23;5.33;;;0.60;99.90;;;;;;4993340;28;20935;-65
2022/01/10 04:42:45;;;;;;;14.33;4.67;;;0.60;99.90;;;;;;4998852;28;20213;-65
2022/01/10 04:45:12;;;;;;;12.73;4.90;;;0.60;99.90;;;;;;4990769;28;20192;-65
2022/01/10 04:47:38;;;;;;;9.60;4.90;;;0.50;99.90;;;;;;4992160;28;20451;-66
2022/01/10 04:52:32;;;;;;;10.50;4.80;;;0.50;99.90;;;;;;4994291;28;20496;-66
2022/01/10 04:54:59;;;;;;;11.23;6.17;;;0.50;99.90;;;;;;4993475;28;20907;-66
2022/01/10 04:57:24;;;;;;;10.77;4.60;;;0.50;99.90;;;;;;4981147;28;20180;-66
2022/01/10 04:59:50;;;;;;;10.37;4.80;;;0.50;99.90;;;;;;4993915;28;20787;-66
2022/01/10 05:02:16;;;;;;;14.20;5.50;;;0.50;99.90;;;;;;5002061;28;20188;-66
2022/01/10 05:04:42;;;;;;;11.23;4.90;;;0.50;99.90;;;;;;4994031;28;20215;-66
2022/01/10 05:07:08;;;;;;;11.40;4.60;;;0.60;99.90;;;;;;5003052;28;20198;-66
2022/01/10 05:09:33;;;;;;;9.30;5.00;;;0.60;99.90;;;;;;4997891;28;20703;-66
2022/01/10 05:11:59;;;;;;;6.73;3.50;;;0.50;99.90;;;;;;5001057;28;20509;-66
2022/01/10 05:14:25;;;;;;;12.23;4.23;;;0.60;99.90;;;;;;4998356;28;20692;-66
2022/01/10 05:16:51;;;;;;;13.20;4.93;;;0.50;99.90;;;;;;4999368;28;20544;-66
2022/01/10 05:19:18;;;;;;;8.67;4.23;;;0.50;99.90;;;;;;4995661;28;20215;-66
2022/01/10 05:21:44;;;;;;;7.73;4.60;;;0.60;99.90;;;;;;5001812;28;20457;-66
2022/01/10 05:24:09;;;;;;;9.47;3.97;;;0.50;99.90;;;;;;4997019;28;20422;-66
2022/01/10 05:26:35;;;;;;;12.00;4.40;;;0.50;99.90;;;;;;5002599;28;20472;-66
2022/01/10 05:29:02;;;;;;;9.20;4.73;;;0.50;99.90;;;;;;5000299;28;20186;-66
2022/01/10 05:31:29;;;;;;;6.70;4.20;;;0.50;99.90;;;;;;4997132;28;20450;-66
2022/01/10 05:33:56;;;;;;;7.77;3.70;;;0.50;99.90;;;;;;4995148;28;21255;-66
2022/01/10 05:36:22;;;;;;;10.53;3.37;;;0.50;99.90;;;;;;4994537;28;20861;-66
2022/01/10 05:38:48;;;;;;;7.00;4.50;;;0.60;99.90;;;;;;4999541;28;20519;-66
2022/01/10 05:41:14;;;;;;;4.93;3.43;;;0.60;99.90;;;;;;5016659;23;20564;-66
2022/01/10 05:43:40;;;;;;;15.90;4.40;;;0.60;99.90;;;;;;5009501;28;20473;-66
2022/01/10 05:46:09;;;;;;;12.13;4.30;;;0.60;99.90;;;;;;5009752;28;20918;-66
2022/01/10 05:48:36;;;;;;;7.50;3.93;;;0.60;99.90;;;;;;5007312;28;20193;-66
2022/01/10 05:51:02;;;;;;;8.90;3.90;;;0.60;99.90;;;;;;5013669;28;20479;-66
2022/01/10 05:53:28;;;;;;;11.70;5.03;;;0.60;99.90;;;;;;5012670;28;20418;-66
2022/01/10 05:55:54;;;;;;;7.07;3.53;;;0.60;99.90;;;;;;5006120;28;20433;-66
2022/01/10 05:58:20;;;;;;;8.87;4.10;;;0.60;99.90;;;;;;5003864;28;20490;-66
2022/01/10 06:00:46;;;;;;;8.47;4.30;;;0.60;99.90;;;;;;4994815;28;20419;-66
2022/01/10 06:03:12;;;;;;;10.80;4.37;;;0.60;99.90;;;;;;4991512;28;20478;-66
2022/01/10 06:05:38;;;;;;;11.63;4.40;;;0.60;99.90;;;;;;5006536;28;20462;-66
2022/01/10 06:08:05;;;;;;;7.00;3.73;;;0.60;99.90;;;;;;5002043;28;20431;-66
2022/01/10 06:10:32;;;;;;;12.03;4.77;;;0.60;99.90;;;;;;4996776;28;20433;-66
2022/01/10 06:12:58;;;;;;;7.73;4.47;;;0.60;99.90;;;;;;4992080;28;20434;-66
2022/01/10 06:15:24;;;;;;;12.07;5.67;;;0.60;99.90;;;;;;5004578;28;20435;-66
2022/01/10 06:17:50;;;;;;;6.80;4.50;;;0.60;99.90;;;;;;5002943;28;20443;-66
2022/01/10 06:20:17;;;;;;;9.33;5.10;;;0.50;99.90;;;;;;5006869;28;20191;-66
2022/01/10 06:22:43;;;;;;;16.63;7.60;;;0.60;99.90;;;;;;5012581;28;20418;-66
2022/01/10 06:25:12;;;;;;;10.37;6.10;;;0.60;99.90;;;;;;5010782;28;20436;-66
2022/01/10 06:27:38;;;;;;;17.17;6.27;;;0.60;99.90;;;;;;5005113;28;20900;-66
2022/01/10 06:30:05;;;;;;;8.40;5.07;;;0.60;99.90;;;;;;5011663;28;20461;-66
2022/01/10 06:32:30;;;;;;;12.77;4.30;;;0.60;99.90;;;;;;5006546;28;20187;-66
2022/01/10 06:34:57;;;;;;;20.03;4.67;;;0.60;99.90;;;;;;5005044;28;20579;-66
2022/01/10 06:37:23;;;;;;;16.40;6.20;;;0.60;99.90;;;;;;5004426;28;20658;-65
2022/01/10 06:39:49;;;;;;;12.10;6.13;;;0.60;99.90;;;;;;5000880;28;20477;-65
2022/01/10 06:42:15;;;;;;;25.23;6.47;;;0.50;99.90;;;;;;5002428;28;20434;-66
2022/01/10 06:44:41;;;;;;;18.60;7.03;;;0.50;99.90;;;;;;5004368;28;20426;-65
2022/01/10 06:47:07;;;;;;;15.90;6.07;;;0.60;99.90;;;;;;4995778;28;20259;-65
2022/01/10 06:49:33;;;;;;;15.53;5.93;;;0.60;99.90;;;;;;4989969;28;20884;-65
2022/01/10 06:51:58;;;;;;;11.37;5.27;;;0.60;99.90;;;;;;4992611;28;20765;-65
2022/01/10 06:54:24;;;;;;;11.20;5.37;;;0.60;99.90;;;;;;4985839;28;20206;-65
2022/01/10 06:56:51;;;;;;;13.37;6.13;;;0.70;99.90;;;;;;4999548;28;20565;-65
2022/01/10 06:59:17;;;;;;;12.10;5.63;;;0.70;99.90;;;;;;4991557;28;20569;-66
2022/01/10 07:01:43;;;;;;;9.53;4.83;;;0.60;99.90;;;;;;4993005;28;20430;-66
2022/01/10 07:04:09;;;;;;;12.67;6.10;;;0.70;99.90;;;;;;4989931;28;20450;-66
2022/01/10 07:06:35;;;;;;;13.53;6.10;;;0.70;99.90;;;;;;4992752;28;20219;-66
2022/01/10 07:09:01;;;;;;;14.33;6.00;;;0.70;99.90;;;;;;4991778;28;20188;-66
2022/01/10 07:11:27;;;;;;;23.83;7.27;;;0.70;99.90;;;;;;5000495;28;20439;-66
2022/01/10 07:13:53;;;;;;;13.10;6.10;;;0.70;99.90;;;;;;4999242;28;20430;-66
2022/01/10 07:16:19;;;;;;;11.50;5.83;;;0.70;99.90;;;;;;4992083;28;20198;-66
2022/01/10 07:18:45;;;;;;;12.17;5.33;;;0.70;99.90;;;;;;4994009;28;20590;-66
2022/01/10 07:21:10;;;;;;;16.13;7.00;;;0.70;99.90;;;;;;4994298;28;20450;-66
2022/01/10 07:23:36;;;;;;;9.90;5.53;;;0.70;99.90;;;;;;4986937;28;20188;-66
2022/01/10 07:26:02;;;;;;;19.27;6.03;;;0.70;99.90;;;;;;4987593;28;20258;-66
2022/01/10 07:28:28;;;;;;;12.10;5.93;;;0.70;99.90;;;;;;4990017;28;20192;-66
2022/01/10 07:30:54;;;;;;;15.80;7.33;;;0.70;99.90;;;;;;4989969;28;20229;-66
2022/01/10 07:33:20;;;;;;;12.87;6.40;;;0.80;99.90;;;;;;4983702;28;20228;-66
2022/01/10 07:35:45;;;;;;;22.00;8.77;;;0.80;99.90;;;;;;4984512;28;20441;-66
2022/01/10 07:38:11;;;;;;;15.27;8.27;;;0.80;99.90;;;;;;4982510;28;20478;-66
2022/01/10 07:40:37;;;;;;;17.50;8.80;;;0.80;99.90;;;;;;4983011;28;20204;-66
2022/01/10 07:43:03;;;;;;;13.07;6.83;;;0.80;99.90;;;;;;4982407;28;20581;-66
2022/01/10 07:45:28;;;;;;;18.57;7.73;;;0.90;99.90;;;;;;4982894;28;20685;-66
2022/01/10 07:47:54;;;;;;;13.70;7.13;;;0.90;99.90;;;;;;4983933;28;20495;-66
2022/01/10 07:50:20;;;;;;;13.47;6.60;;;0.90;99.90;;;;;;4981573;28;20192;-65
2022/01/10 07:52:46;;;;;;;15.63;7.23;;;0.90;99.90;;;;;;4986198;28;20790;-65
2022/01/10 07:55:11;;;;;;;16.50;7.57;;;0.90;99.90;;;;;;4982387;28;20184;-65
2022/01/10 07:57:37;;;;;;;25.07;7.87;;;0.90;99.90;;;;;;4980952;28;20514;-65
2022/01/10 08:00:06;;;;;;;13.07;5.80;;;1.00;99.90;;;;;;4981050;28;20605;-66
2022/01/10 08:02:31;;;;;;;17.37;8.70;;;1.00;99.90;;;;;;4992066;28;20191;-66
2022/01/10 08:04:57;;;;;;;15.10;7.67;;;1.00;99.90;;;;;;4989047;28;20430;-66
2022/01/10 08:07:23;;;;;;;14.10;7.27;;;1.00;99.90;;;;;;4993476;28;20549;-66
2022/01/10 08:09:49;;;;;;;20.77;7.07;;;1.00;99.90;;;;;;4998082;28;20269;-67
2022/01/10 08:12:14;;;;;;;12.17;7.20;;;1.00;99.90;;;;;;4987360;28;20183;-66
2022/01/10 08:14:41;;;;;;;12.80;6.37;;;1.00;99.90;;;;;;4992811;28;20951;-67
2022/01/10 08:17:07;;;;;;;13.50;7.03;;;1.10;99.90;;;;;;4992614;28;20183;-66
2022/01/10 08:19:34;;;;;;;19.73;6.80;;;1.10;99.90;;;;;;4990185;28;20482;-67
2022/01/10 08:22:01;;;;;;;21.73;8.83;;;1.10;99.90;;;;;;4986657;28;20194;-67
2022/01/10 08:24:26;;;;;;;26.03;9.13;;;1.10;99.90;;;;;;4995856;28;20423;-66
2022/01/10 08:26:53;;;;;;;16.60;8.27;;;1.20;99.90;;;;;;4989413;28;20494;-66
2022/01/10 08:29:19;;;;;;;14.20;8.13;;;1.30;99.90;;;;;;4990190;28;20194;-67
2022/01/10 08:31:45;;;;;;;22.37;8.03;;;1.40;99.90;;;;;;4991143;28;20446;-66
2022/01/10 08:34:12;;;;;;;14.57;7.00;;;1.40;99.90;;;;;;4992393;28;20989;-66
2022/01/10 08:36:38;;;;;;;14.23;6.03;;;1.50;99.90;;;;;;4995213;28;20469;-67
2022/01/10 08:39:06;;;;;;;14.63;6.70;;;1.50;99.90;;;;;;4993369;28;20545;-67
2022/01/10 08:41:32;;;;;;;18.83;7.60;;;1.50;99.90;;;;;;4993731;28;20224;-66
2022/01/10 08:43:58;;;;;;;14.33;5.47;;;1.60;99.90;;;;;;4994340;28;20430;-67
2022/01/10 08:46:24;;;;;;;12.67;6.43;;;1.60;99.90;;;;;;4992681;28;20438;-66
2022/01/10 08:48:50;;;;;;;15.03;7.50;;;1.60;99.90;;;;;;4997612;28;20196;-67
2022/01/10 08:51:17;;;;;;;14.20;6.00;;;1.60;99.90;;;;;;4994396;28;20195;-67
2022/01/10 08:53:42;;;;;;;14.80;6.07;;;1.60;99.90;;;;;;4996445;28;20457;-67
2022/01/10 08:56:08;;;;;;;13.00;6.27;;;1.70;99.90;;;;;;4992666;28;20470;-66
2022/01/10 08:58:34;;;;;;;11.27;5.30;;;1.70;99.90;;;;;;4997327;28;20211;-67
2022/01/10 09:01:02;;;;;;;19.07;6.30;;;1.80;99.90;;;;;;4992549;28;20643;-67
2022/01/10 09:03:28;;;;;;;21.93;6.43;;;1.80;99.90;;;;;;4989994;28;20307;-67
2022/01/10 09:05:55;;;;;;;13.43;4.90;;;1.90;99.90;;;;;;4991093;28;20533;-66
2022/01/10 09:08:23;;;;;;;19.00;6.30;;;2.00;99.90;;;;;;4992686;28;20199;-67
2022/01/10 09:10:49;;;;;;;9.37;5.23;;;2.00;99.90;;;;;;4986855;28;20435;-67
2022/01/10 09:13:14;;;;;;;12.13;6.43;;;2.00;99.90;;;;;;4992434;28;20850;-67
2022/01/10 09:15:40;;;;;;;12.07;4.63;;;2.00;99.90;;;;;;4986042;28;20183;-67
2022/01/10 09:18:06;;;;;;;12.30;5.20;;;2.00;99.90;;;;;;4984019;28;20215;-67
2022/01/10 09:20:31;;;;;;;21.23;5.10;;;2.10;99.90;;;;;;4979655;28;20176;-66
2022/01/10 09:22:57;;;;;;;13.83;5.83;;;2.10;99.90;;;;;;4982817;28;20480;-66
2022/01/10 09:25:23;;;;;;;12.60;6.17;;;2.10;99.90;;;;;;4983301;28;20211;-67
2022/01/10 09:27:49;;;;;;;20.67;6.50;;;2.10;99.90;;;;;;4990377;28;20191;-66
2022/01/10 09:30:15;;;;;;;23.40;5.60;;;2.00;99.90;;;;;;4985542;28;20184;-67
2022/01/10 09:32:40;;;;;;;15.13;5.33;;;2.10;99.90;;;;;;4981559;28;20424;-67
2022/01/10 09:35:07;;;;;;;15.13;6.50;;;2.10;99.90;;;;;;4982660;28;20291;-67
2022/01/10 09:37:33;;;;;;;14.03;6.70;;;2.10;99.90;;;;;;4985522;28;20188;-67
2022/01/10 09:39:59;;;;;;;13.40;5.30;;;2.20;99.90;;;;;;4990984;28;20481;-67
2022/01/10 09:42:24;;;;;;;12.87;5.13;;;2.20;99.90;;;;;;4980965;28;20435;-67
2022/01/10 09:44:51;;;;;;;13.17;6.50;;;2.20;99.90;;;;;;4986656;28;20195;-67
2022/01/10 09:47:17;;;;;;;16.23;6.17;;;2.20;99.90;;;;;;4985105;28;20187;-67
2022/01/10 09:49:42;;;;;;;19.60;6.80;;;2.10;99.90;;;;;;4980502;28;20846;-68
2022/01/10 09:52:09;;;;;;;12.77;4.93;;;2.20;99.90;;;;;;4985637;28;20440;-68
2022/01/10 09:54:35;;;;;;;19.30;5.70;;;2.20;99.90;;;;;;4981794;28;20542;-68
2022/01/10 09:57:01;;;;;;;9.70;5.43;;;2.20;99.90;;;;;;4988486;28;21029;-68
2022/01/10 09:59:27;;;;;;;23.90;6.27;;;2.30;99.90;;;;;;4988859;28;20231;-68
2022/01/10 10:01:53;;;;;;;12.17;5.37;;;2.30;99.90;;;;;;4987472;28;20271;-68
2022/01/10 10:04:19;;;;;;;15.70;6.00;;;2.30;99.90;;;;;;4986121;28;20937;-68
2022/01/10 10:06:46;;;;;;;12.93;5.83;;;2.30;99.90;;;;;;4981245;28;20529;-68
2022/01/10 10:09:11;;;;;;;17.47;5.63;;;2.30;99.90;;;;;;4986378;28;20633;-68
2022/01/10 10:11:38;;;;;;;18.43;5.67;;;2.40;99.90;;;;;;4983339;28;20439;-68
2022/01/10 10:14:04;;;;;;;13.60;5.73;;;2.30;99.90;;;;;;4984545;28;20801;-68
2022/01/10 10:16:31;;;;;;;13.43;6.70;;;2.40;99.90;;;;;;4985606;28;20439;-68
2022/01/10 10:18:58;;;;;;;26.67;6.43;;;2.30;99.90;;;;;;4978172;28;20494;-68
2022/01/10 10:21:24;;;;;;;12.27;5.80;;;2.40;99.90;;;;;;4987714;28;20439;-68
2022/01/10 10:23:50;;;;;;;18.77;5.87;;;2.40;99.90;;;;;;4984796;28;20426;-68
2022/01/10 10:26:23;;;;;;;10.83;5.07;;;2.40;99.90;;;;;;4983044;28;20234;-68
2022/01/10 10:28:51;;;;;;;12.37;6.17;;;2.50;99.90;;;;;;4982956;28;20439;-68
2022/01/10 10:31:36;;;;;;;10.50;4.70;;;2.50;99.90;;;;;;4985304;28;20442;-68
2022/01/10 10:34:04;;;;;;;13.53;6.43;;;2.50;99.90;;;;;;4985434;28;20436;-68
2022/01/10 10:36:35;;;;;;;10.53;6.00;;;2.50;99.90;;;;;;4987133;28;21054;-68
2022/01/10 10:39:07;;;;;;;15.17;7.33;;;2.60;99.90;;;;;;4984835;28;20473;-68
2022/01/10 10:41:37;;;;;;;19.03;6.13;;;2.60;99.90;;;;;;4979741;28;20489;-69
2022/01/10 10:44:04;;;;;;;12.90;4.90;;;2.70;99.90;;;;;;4981620;28;20932;-68
2022/01/10 10:46:30;;;;;;;9.17;5.23;;;2.70;99.90;;;;;;4982595;28;20879;-68
2022/01/10 10:49:04;;;;;;;14.63;5.10;;;2.70;99.90;;;;;;4992053;28;20453;-68
2022/01/10 10:51:32;;;;;;;10.47;5.37;;;2.70;99.90;;;;;;4985317;28;20180;-68
2022/01/10 10:54:07;;;;;;;10.10;4.57;;;2.80;99.90;;;;;;4995031;28;20426;-68
2022/01/10 10:56:37;;;;;;;11.43;4.30;;;2.80;99.90;;;;;;4990693;28;20435;-69
2022/01/10 10:59:06;;;;;;;10.63;3.47;;;2.90;99.90;;;;;;4984099;28;20541;-68
2022/01/10 11:01:32;;;;;;;9.93;4.53;;;3.10;99.90;;;;;;4984122;28;20446;-69
2022/01/10 11:04:11;;;;;;;9.60;4.17;;;3.10;99.90;;;;;;5081085;28;20566;-64
2022/01/10 11:06:38;;;;;;;7.90;3.63;;;3.10;99.90;;;;;;5073903;28;20553;-64
2022/01/10 11:09:06;;;;;;;9.10;3.80;;;3.20;99.90;;;;;;5080251;28;20422;-63
2022/01/10 11:11:33;;;;;;;19.77;4.20;;;3.20;99.90;;;;;;5068186;28;20436;-64
2022/01/10 11:14:00;;;;;;;13.17;4.07;;;3.10;99.90;;;;;;5063997;28;20435;-64
2022/01/10 11:16:28;;;;;;;12.57;4.73;;;3.10;99.90;;;;;;5060518;28;20423;-66
2022/01/10 11:18:54;;;;;;;16.10;4.30;;;3.10;99.90;;;;;;5064299;28;20426;-67
2022/01/10 11:21:23;;;;;;;7.60;3.30;;;3.10;99.90;;;;;;5063688;28;20436;-67
2022/01/10 11:23:50;;;;;;;9.20;3.57;;;3.00;99.90;;;;;;5070623;28;20513;-66
2022/01/10 11:26:17;;;;;;;10.00;4.13;;;3.00;99.90;;;;;;5068090;28;20462;-66
2022/01/10 11:28:55;;;;;;;12.93;4.53;;;3.00;99.90;;;;;;5074292;28;20437;-66
2022/01/10 11:31:26;;;;;;;12.50;4.80;;;3.00;99.90;;;;;;5074923;28;20426;-66
2022/01/10 11:33:54;;;;;;;10.33;4.90;;;2.90;99.90;;;;;;5065447;28;20541;-66
2022/01/10 11:36:23;;;;;;;13.00;5.00;;;3.00;99.90;;;;;;5073590;28;20463;-66
2022/01/10 11:38:54;;;;;;;6.87;3.90;;;3.00;99.90;;;;;;5077911;28;20830;-66
2022/01/10 11:41:24;;;;;;;10.37;4.13;;;2.90;99.90;;;;;;5068767;28;20976;-66
2022/01/10 11:43:54;;;;;;;11.00;4.20;;;3.00;99.90;;;;;;5069009;28;20475;-67
2022/01/10 11:46:44;;;;;;;13.20;5.20;;;3.00;99.90;;;;;;5079546;28;20416;-66
2022/01/10 11:49:09;;;;;;;22.17;4.23;;;3.10;99.90;;;;;;5073632;28;21262;-66
2022/01/10 11:51:37;;;;;;;11.60;4.30;;;3.10;99.90;;;;;;5070427;28;20431;-66
2022/01/10 11:54:18;;;;;;;11.60;4.03;;;3.10;99.90;;;;;;5077407;28;20208;-66
2022/01/10 11:56:58;;;;;;;12.20;5.30;;;3.10;99.90;;;;;;5080059;28;20440;-67
2022/01/10 11:59:38;;;;;;;12.97;6.17;;;3.00;99.90;;;;;;5073554;28;21000;-66
2022/01/10 12:02:10;;;;;;;12.17;5.10;;;3.00;99.90;;;;;;5074264;28;20474;-66
2022/01/10 12:04:55;;;;;;;17.80;6.27;;;3.00;99.90;;;;;;5064161;28;20443;-66
2022/01/10 12:07:22;;;;;;;11.60;4.80;;;3.00;99.90;;;;;;5079664;28;20505;-67
2022/01/10 12:09:48;;;;;;;12.67;5.10;;;3.00;99.90;;;;;;5079939;28;20536;-66
2022/01/10 12:12:19;;;;;;;11.50;5.50;;;3.10;99.90;;;;;;5070609;28;20449;-63
2022/01/10 12:14:46;;;;;;;14.87;5.47;;;3.10;99.90;;;;;;5067254;28;20435;-64
2022/01/10 12:17:13;;;;;;;11.70;5.10;;;3.10;99.90;;;;;;5063904;28;20513;-64
2022/01/10 12:19:39;;;;;;;17.13;6.00;;;3.10;99.90;;;;;;5057604;28;20473;-63
2022/01/10 12:22:07;;;;;;;15.20;6.77;;;3.10;99.90;;;;;;5063280;28;20475;-66
2022/01/10 12:24:38;;;;;;;19.00;6.30;;;3.10;99.90;;;;;;5055210;28;20437;-66
2022/01/10 12:27:06;;;;;;;12.53;6.00;;;3.10;99.90;;;;;;5065483;28;20838;-66
2022/01/10 12:29:33;;;;;;;19.10;4.90;;;3.00;99.90;;;;;;5065249;28;20415;-66
2022/01/10 12:32:00;;;;;;;7.77;3.23;;;3.10;99.90;;;;;;5053876;28;20452;-66
2022/01/10 12:34:26;;;;;;;10.20;4.50;;;3.10;99.90;;;;;;5052586;28;20453;-66
2022/01/10 12:36:52;;;;;;;13.53;4.27;;;3.10;99.90;;;;;;5054418;28;20436;-66
2022/01/10 12:39:23;;;;;;;11.97;5.00;;;3.10;99.90;;;;;;5055765;28;20443;-66
2022/01/10 12:41:50;;;;;;;12.03;4.60;;;3.20;99.90;;;;;;5063968;28;20227;-66
2022/01/10 12:44:16;;;;;;;11.10;4.47;;;3.20;99.90;;;;;;5051418;28;20455;-67
2022/01/10 12:46:42;;;;;;;8.40;4.40;;;3.30;99.90;;;;;;5049265;28;20847;-66
2022/01/10 12:49:11;;;;;;;11.80;4.27;;;3.30;99.90;;;;;;5049851;28;20424;-67
2022/01/10 12:51:43;;;;;;;15.40;5.50;;;3.40;99.90;;;;;;5064688;28;20282;-67
2022/01/10 12:54:18;;;;;;;16.47;5.50;;;3.30;99.90;;;;;;5058119;28;20463;-66
2022/01/10 12:56:44;;;;;;;16.97;5.80;;;3.40;99.90;;;;;;5049158;28;20439;-66
2022/01/10 12:59:14;;;;;;;14.07;5.53;;;3.40;99.90;;;;;;5065442;28;20695;-66